sensor_id;sensor_type;location;lat;lon;timestamp;temperature;humidity
13982;DHT22;7065;50.880;5.502;2022-12-29T00:01:30;10.80;99.90
13982;DHT22;7065;50.880;5.502;2022-12-29T00:03:56;10.80;99.90
13982;DHT22;7065;50.880;5.502;2022-12-29T00:06:22;10.90;99.90
13982;DHT22;7065;50.880;5.502;2022-12-29T00:08:48;10.90;99.90
13982;DHT22;7065;50.880;5.502;2022-12-29T00:11:18;11.00;99.90
13982;DHT22;7065;50.880;5.502;2022-12-29T00:13:44;11.00;99.90
13982;DHT22;7065;50.880;5.502;2022-12-29T00:16:29;11.00;99.90
13982;DHT22;7065;50.880;5.502;2022-12-29T00:18:55;11.10;99.90
13982;DHT22;7065;50.880;5.502;2022-12-29T00:21:22;11.20;99.90
13982;DHT22;7065;50.880;5.502;2022-12-29T00:24:20;11.20;99.90
13982;DHT22;7065;50.880;5.502;2022-12-29T00:29:42;11.20;99.90
13982;DHT22;7065;50.880;5.502;2022-12-29T00:32:26;11.30;99.90
13982;DHT22;7065;50.880;5.502;2022-12-29T00:35:13;11.30;99.90
13982;DHT22;7065;50.880;5.502;2022-12-29T00:37:46;11.30;99.90
13982;DHT22;7065;50.880;5.502;2022-12-29T00:40:31;11.30;99.90
13982;DHT22;7065;50.880;5.502;2022-12-29T00:43:16;11.30;99.90
13982;DHT22;7065;50.880;5.502;2022-12-29T00:46:00;11.30;99.90
13982;DHT22;7065;50.880;5.502;2022-12-29T00:48:26;11.30;99.90
13982;DHT22;7065;50.880;5.502;2022-12-29T00:51:10;11.30;99.90
13982;DHT22;7065;50.880;5.502;2022-12-29T00:53:36;11.30;99.90
13982;DHT22;7065;50.880;5.502;2022-12-29T00:56:02;11.30;99.90
13982;DHT22;7065;50.880;5.502;2022-12-29T00:58:28;11.30;99.90
13982;DHT22;7065;50.880;5.502;2022-12-29T01:01:05;11.30;99.90
13982;DHT22;7065;50.880;5.502;2022-12-29T01:03:31;11.30;99.90
13982;DHT22;7065;50.880;5.502;2022-12-29T01:06:00;11.30;99.90
13982;DHT22;7065;50.880;5.502;2022-12-29T01:08:27;11.30;99.90
13982;DHT22;7065;50.880;5.502;2022-12-29T01:11:07;11.30;99.90
13982;DHT22;7065;50.880;5.502;2022-12-29T01:13:33;11.30;99.90
13982;DHT22;7065;50.880;5.502;2022-12-29T01:16:00;11.30;99.90
13982;DHT22;7065;50.880;5.502;2022-12-29T01:18:26;11.30;99.90
13982;DHT22;7065;50.880;5.502;2022-12-29T01:21:04;11.30;99.90
13982;DHT22;7065;50.880;5.502;2022-12-29T01:23:32;11.30;99.90
13982;DHT22;7065;50.880;5.502;2022-12-29T01:26:07;11.20;99.90
13982;DHT22;7065;50.880;5.502;2022-12-29T01:28:33;11.30;99.90
13982;DHT22;7065;50.880;5.502;2022-12-29T01:31:01;11.30;99.90
13982;DHT22;7065;50.880;5.502;2022-12-29T01:33:26;11.30;99.90
13982;DHT22;7065;50.880;5.502;2022-12-29T01:35:52;11.30;99.90
13982;DHT22;7065;50.880;5.502;2022-12-29T01:38:18;11.30;99.90
13982;DHT22;7065;50.880;5.502;2022-12-29T01:40:45;11.30;99.90
13982;DHT22;7065;50.880;5.502;2022-12-29T01:43:12;11.30;99.90
13982;DHT22;7065;50.880;5.502;2022-12-29T01:45:50;11.30;99.90
13982;DHT22;7065;50.880;5.502;2022-12-29T01:48:18;11.30;99.90
13982;DHT22;7065;50.880;5.502;2022-12-29T01:50:51;11.40;99.90
13982;DHT22;7065;50.880;5.502;2022-12-29T01:53:30;11.40;99.90
13982;DHT22;7065;50.880;5.502;2022-12-29T01:56:00;11.40;99.90
13982;DHT22;7065;50.880;5.502;2022-12-29T01:58:30;11.40;99.90
13982;DHT22;7065;50.880;5.502;2022-12-29T02:00:56;11.40;99.90
13982;DHT22;7065;50.880;5.502;2022-12-29T02:03:24;11.40;99.90
13982;DHT22;7065;50.880;5.502;2022-12-29T02:05:59;11.40;99.90
13982;DHT22;7065;50.880;5.502;2022-12-29T02:08:28;11.40;99.90
13982;DHT22;7065;50.880;5.502;2022-12-29T02:10:56;11.30;99.90
13982;DHT22;7065;50.880;5.502;2022-12-29T02:13:24;11.30;99.90
13982;DHT22;7065;50.880;5.502;2022-12-29T02:21:35;11.30;99.90
13982;DHT22;7065;50.880;5.502;2022-12-29T02:37:39;11.10;99.90
13982;DHT22;7065;50.880;5.502;2022-12-29T02:48:08;11.10;99.90
13982;DHT22;7065;50.880;5.502;2022-12-29T02:50:43;11.20;99.90
13982;DHT22;7065;50.880;5.502;2022-12-29T02:53:15;11.20;99.90
13982;DHT22;7065;50.880;5.502;2022-12-29T02:56:03;11.20;99.90
13982;DHT22;7065;50.880;5.502;2022-12-29T02:58:29;11.20;99.90
13982;DHT22;7065;50.880;5.502;2022-12-29T03:04:23;11.20;99.90
13982;DHT22;7065;50.880;5.502;2022-12-29T03:13:01;11.30;99.90
13982;DHT22;7065;50.880;5.502;2022-12-29T03:16:23;11.30;99.90
13982;DHT22;7065;50.880;5.502;2022-12-29T03:19:05;11.40;99.90
13982;DHT22;7065;50.880;5.502;2022-12-29T03:24:25;11.40;99.90
13982;DHT22;7065;50.880;5.502;2022-12-29T03:26:56;11.40;99.90
13982;DHT22;7065;50.880;5.502;2022-12-29T03:29:24;11.40;99.90
13982;DHT22;7065;50.880;5.502;2022-12-29T03:31:51;11.40;99.90
13982;DHT22;7065;50.880;5.502;2022-12-29T03:34:19;11.40;99.90
13982;DHT22;7065;50.880;5.502;2022-12-29T03:37:00;11.40;99.90
13982;DHT22;7065;50.880;5.502;2022-12-29T03:39:27;11.40;99.90
13982;DHT22;7065;50.880;5.502;2022-12-29T03:42:04;11.40;99.90
13982;DHT22;7065;50.880;5.502;2022-12-29T03:44:42;11.40;99.90
13982;DHT22;7065;50.880;5.502;2022-12-29T03:47:10;11.50;99.90
13982;DHT22;7065;50.880;5.502;2022-12-29T03:49:37;11.40;99.90
13982;DHT22;7065;50.880;5.502;2022-12-29T03:52:03;11.50;99.90
13982;DHT22;7065;50.880;5.502;2022-12-29T03:54:29;11.50;99.90
13982;DHT22;7065;50.880;5.502;2022-12-29T03:56:56;11.50;99.90
13982;DHT22;7065;50.880;5.502;2022-12-29T03:59:22;11.50;99.90
13982;DHT22;7065;50.880;5.502;2022-12-29T04:01:48;11.50;99.90
13982;DHT22;7065;50.880;5.502;2022-12-29T04:04:14;11.60;99.90
13982;DHT22;7065;50.880;5.502;2022-12-29T04:06:40;11.60;99.90
13982;DHT22;7065;50.880;5.502;2022-12-29T04:09:06;11.50;99.90
13982;DHT22;7065;50.880;5.502;2022-12-29T04:11:32;11.40;99.90
13982;DHT22;7065;50.880;5.502;2022-12-29T04:13:57;11.30;99.90
13982;DHT22;7065;50.880;5.502;2022-12-29T04:16:23;11.20;99.90
13982;DHT22;7065;50.880;5.502;2022-12-29T04:18:49;11.20;99.90
13982;DHT22;7065;50.880;5.502;2022-12-29T04:21:14;11.30;99.90
13982;DHT22;7065;50.880;5.502;2022-12-29T04:23:40;11.30;99.90
13982;DHT22;7065;50.880;5.502;2022-12-29T04:26:07;11.30;99.90
13982;DHT22;7065;50.880;5.502;2022-12-29T04:28:33;11.30;99.90
13982;DHT22;7065;50.880;5.502;2022-12-29T04:30:59;11.40;99.90
13982;DHT22;7065;50.880;5.502;2022-12-29T04:33:25;11.40;99.90
13982;DHT22;7065;50.880;5.502;2022-12-29T04:35:52;11.50;99.90
13982;DHT22;7065;50.880;5.502;2022-12-29T04:38:20;11.50;99.90
13982;DHT22;7065;50.880;5.502;2022-12-29T04:40:46;11.60;99.90
13982;DHT22;7065;50.880;5.502;2022-12-29T04:43:13;11.50;99.90
13982;DHT22;7065;50.880;5.502;2022-12-29T04:45:43;11.60;99.90
13982;DHT22;7065;50.880;5.502;2022-12-29T04:48:09;11.60;99.90
13982;DHT22;7065;50.880;5.502;2022-12-29T04:50:34;11.60;99.90
13982;DHT22;7065;50.880;5.502;2022-12-29T04:53:00;11.50;99.90
13982;DHT22;7065;50.880;5.502;2022-12-29T04:55:26;11.50;99.90
13982;DHT22;7065;50.880;5.502;2022-12-29T04:57:52;11.50;99.90
13982;DHT22;7065;50.880;5.502;2022-12-29T05:00:18;11.50;99.90
13982;DHT22;7065;50.880;5.502;2022-12-29T05:02:44;11.50;99.90
13982;DHT22;7065;50.880;5.502;2022-12-29T05:05:09;11.40;99.90
13982;DHT22;7065;50.880;5.502;2022-12-29T05:07:35;11.30;99.90
13982;DHT22;7065;50.880;5.502;2022-12-29T05:10:01;11.30;99.90
13982;DHT22;7065;50.880;5.502;2022-12-29T05:12:30;11.30;99.90
13982;DHT22;7065;50.880;5.502;2022-12-29T05:14:56;11.20;99.90
13982;DHT22;7065;50.880;5.502;2022-12-29T05:17:22;11.20;99.90
13982;DHT22;7065;50.880;5.502;2022-12-29T05:19:48;11.20;99.90
13982;DHT22;7065;50.880;5.502;2022-12-29T05:22:14;11.20;99.90
13982;DHT22;7065;50.880;5.502;2022-12-29T05:24:40;11.10;99.90
13982;DHT22;7065;50.880;5.502;2022-12-29T05:27:06;11.10;99.90
13982;DHT22;7065;50.880;5.502;2022-12-29T05:29:32;11.10;99.90
13982;DHT22;7065;50.880;5.502;2022-12-29T05:31:57;11.10;99.90
13982;DHT22;7065;50.880;5.502;2022-12-29T05:34:23;11.10;99.90
13982;DHT22;7065;50.880;5.502;2022-12-29T05:36:49;11.10;99.90
13982;DHT22;7065;50.880;5.502;2022-12-29T05:39:14;11.10;99.90
13982;DHT22;7065;50.880;5.502;2022-12-29T05:41:40;11.10;99.90
13982;DHT22;7065;50.880;5.502;2022-12-29T05:44:06;11.10;99.90
13982;DHT22;7065;50.880;5.502;2022-12-29T05:46:31;11.10;99.90
13982;DHT22;7065;50.880;5.502;2022-12-29T05:48:57;11.10;99.90
13982;DHT22;7065;50.880;5.502;2022-12-29T05:51:23;11.10;99.90
13982;DHT22;7065;50.880;5.502;2022-12-29T05:53:49;11.20;99.90
13982;DHT22;7065;50.880;5.502;2022-12-29T05:56:15;11.20;99.90
13982;DHT22;7065;50.880;5.502;2022-12-29T05:58:41;11.10;99.90
13982;DHT22;7065;50.880;5.502;2022-12-29T06:01:07;11.10;99.90
13982;DHT22;7065;50.880;5.502;2022-12-29T06:03:33;11.10;99.90
13982;DHT22;7065;50.880;5.502;2022-12-29T06:05:59;11.10;99.90
13982;DHT22;7065;50.880;5.502;2022-12-29T06:08:25;11.10;99.90
13982;DHT22;7065;50.880;5.502;2022-12-29T06:10:50;11.00;99.90
13982;DHT22;7065;50.880;5.502;2022-12-29T06:13:16;11.00;99.90
13982;DHT22;7065;50.880;5.502;2022-12-29T06:15:42;11.10;99.90
13982;DHT22;7065;50.880;5.502;2022-12-29T06:18:07;11.10;99.90
13982;DHT22;7065;50.880;5.502;2022-12-29T06:20:33;11.00;99.90
13982;DHT22;7065;50.880;5.502;2022-12-29T06:22:59;10.90;99.90
13982;DHT22;7065;50.880;5.502;2022-12-29T06:25:25;10.90;99.90
13982;DHT22;7065;50.880;5.502;2022-12-29T06:27:50;10.90;99.90
13982;DHT22;7065;50.880;5.502;2022-12-29T06:30:16;10.90;99.90
13982;DHT22;7065;50.880;5.502;2022-12-29T06:32:42;10.90;99.90
13982;DHT22;7065;50.880;5.502;2022-12-29T06:35:08;10.80;99.90
13982;DHT22;7065;50.880;5.502;2022-12-29T06:37:35;10.80;99.90
13982;DHT22;7065;50.880;5.502;2022-12-29T06:40:01;10.80;99.90
13982;DHT22;7065;50.880;5.502;2022-12-29T06:42:27;10.70;99.90
13982;DHT22;7065;50.880;5.502;2022-12-29T06:44:53;10.70;99.90
13982;DHT22;7065;50.880;5.502;2022-12-29T06:47:19;10.70;99.90
13982;DHT22;7065;50.880;5.502;2022-12-29T06:49:45;10.60;99.90
13982;DHT22;7065;50.880;5.502;2022-12-29T06:52:11;10.60;99.90
13982;DHT22;7065;50.880;5.502;2022-12-29T06:54:36;10.50;99.90
13982;DHT22;7065;50.880;5.502;2022-12-29T06:57:02;10.40;99.90
13982;DHT22;7065;50.880;5.502;2022-12-29T06:59:28;10.40;99.90
13982;DHT22;7065;50.880;5.502;2022-12-29T07:01:54;10.50;99.90
13982;DHT22;7065;50.880;5.502;2022-12-29T07:04:20;10.60;99.90
13982;DHT22;7065;50.880;5.502;2022-12-29T07:06:45;10.60;99.90
13982;DHT22;7065;50.880;5.502;2022-12-29T07:09:11;10.60;99.90
13982;DHT22;7065;50.880;5.502;2022-12-29T07:11:37;10.60;99.90
13982;DHT22;7065;50.880;5.502;2022-12-29T07:14:03;10.60;99.90
13982;DHT22;7065;50.880;5.502;2022-12-29T07:16:29;10.70;99.90
13982;DHT22;7065;50.880;5.502;2022-12-29T07:18:56;10.60;99.90
13982;DHT22;7065;50.880;5.502;2022-12-29T07:21:22;10.60;99.90
13982;DHT22;7065;50.880;5.502;2022-12-29T07:23:49;10.60;99.90
13982;DHT22;7065;50.880;5.502;2022-12-29T07:26:15;10.60;99.90
13982;DHT22;7065;50.880;5.502;2022-12-29T07:28:43;10.60;99.90
13982;DHT22;7065;50.880;5.502;2022-12-29T07:31:19;10.60;99.90
13982;DHT22;7065;50.880;5.502;2022-12-29T07:33:45;10.70;99.90
13982;DHT22;7065;50.880;5.502;2022-12-29T07:36:12;10.60;99.90
13982;DHT22;7065;50.880;5.502;2022-12-29T07:38:38;10.40;99.90
13982;DHT22;7065;50.880;5.502;2022-12-29T07:41:04;10.40;99.90
13982;DHT22;7065;50.880;5.502;2022-12-29T07:43:30;10.30;99.90
13982;DHT22;7065;50.880;5.502;2022-12-29T07:45:55;10.30;99.90
13982;DHT22;7065;50.880;5.502;2022-12-29T07:48:22;10.20;99.90
13982;DHT22;7065;50.880;5.502;2022-12-29T07:50:48;10.20;99.90
13982;DHT22;7065;50.880;5.502;2022-12-29T07:53:14;10.20;99.90
13982;DHT22;7065;50.880;5.502;2022-12-29T07:55:41;10.20;99.90
13982;DHT22;7065;50.880;5.502;2022-12-29T07:58:07;10.30;99.90
13982;DHT22;7065;50.880;5.502;2022-12-29T08:00:32;10.30;99.90
13982;DHT22;7065;50.880;5.502;2022-12-29T08:02:58;10.30;99.90
13982;DHT22;7065;50.880;5.502;2022-12-29T08:05:24;10.30;99.90
13982;DHT22;7065;50.880;5.502;2022-12-29T08:07:50;10.30;99.90
13982;DHT22;7065;50.880;5.502;2022-12-29T08:10:16;10.20;99.90
13982;DHT22;7065;50.880;5.502;2022-12-29T08:12:42;10.20;99.90
13982;DHT22;7065;50.880;5.502;2022-12-29T08:15:10;10.30;99.90
13982;DHT22;7065;50.880;5.502;2022-12-29T08:17:36;10.30;99.90
13982;DHT22;7065;50.880;5.502;2022-12-29T08:20:02;10.30;99.90
13982;DHT22;7065;50.880;5.502;2022-12-29T08:22:28;10.40;99.90
13982;DHT22;7065;50.880;5.502;2022-12-29T08:24:54;10.40;99.90
13982;DHT22;7065;50.880;5.502;2022-12-29T08:27:20;10.30;99.90
13982;DHT22;7065;50.880;5.502;2022-12-29T08:29:45;10.30;99.90
13982;DHT22;7065;50.880;5.502;2022-12-29T08:32:11;10.30;99.90
13982;DHT22;7065;50.880;5.502;2022-12-29T08:34:37;10.40;99.90
13982;DHT22;7065;50.880;5.502;2022-12-29T08:37:03;10.50;99.90
13982;DHT22;7065;50.880;5.502;2022-12-29T08:39:29;10.50;99.90
13982;DHT22;7065;50.880;5.502;2022-12-29T08:41:55;10.50;99.90
13982;DHT22;7065;50.880;5.502;2022-12-29T08:44:22;10.50;99.90
13982;DHT22;7065;50.880;5.502;2022-12-29T08:46:47;10.50;99.90
13982;DHT22;7065;50.880;5.502;2022-12-29T08:49:13;10.50;99.90
13982;DHT22;7065;50.880;5.502;2022-12-29T08:51:39;10.40;99.90
13982;DHT22;7065;50.880;5.502;2022-12-29T08:54:05;10.40;99.90
13982;DHT22;7065;50.880;5.502;2022-12-29T08:56:31;10.50;99.90
13982;DHT22;7065;50.880;5.502;2022-12-29T08:58:57;10.60;99.90
13982;DHT22;7065;50.880;5.502;2022-12-29T09:01:23;10.60;99.90
13982;DHT22;7065;50.880;5.502;2022-12-29T09:03:49;10.60;99.90
13982;DHT22;7065;50.880;5.502;2022-12-29T09:06:16;10.50;99.90
13982;DHT22;7065;50.880;5.502;2022-12-29T09:08:43;10.50;99.90
13982;DHT22;7065;50.880;5.502;2022-12-29T09:11:17;10.40;99.90
13982;DHT22;7065;50.880;5.502;2022-12-29T09:13:43;10.40;99.90
13982;DHT22;7065;50.880;5.502;2022-12-29T09:16:10;10.40;99.90
13982;DHT22;7065;50.880;5.502;2022-12-29T09:18:36;10.30;99.90
13982;DHT22;7065;50.880;5.502;2022-12-29T09:21:04;10.30;99.90
13982;DHT22;7065;50.880;5.502;2022-12-29T09:23:31;10.20;99.90
13982;DHT22;7065;50.880;5.502;2022-12-29T09:25:58;10.30;99.90
13982;DHT22;7065;50.880;5.502;2022-12-29T09:28:24;10.20;99.90
13982;DHT22;7065;50.880;5.502;2022-12-29T09:30:50;10.20;99.90
13982;DHT22;7065;50.880;5.502;2022-12-29T09:33:16;10.20;99.90
13982;DHT22;7065;50.880;5.502;2022-12-29T09:35:50;10.20;99.90
13982;DHT22;7065;50.880;5.502;2022-12-29T09:38:17;10.20;99.90
13982;DHT22;7065;50.880;5.502;2022-12-29T09:40:48;10.20;99.90
13982;DHT22;7065;50.880;5.502;2022-12-29T09:43:26;10.30;99.90
13982;DHT22;7065;50.880;5.502;2022-12-29T09:48:37;10.30;99.90
13982;DHT22;7065;50.880;5.502;2022-12-29T09:51:08;10.30;99.90
13982;DHT22;7065;50.880;5.502;2022-12-29T09:53:42;10.30;99.90
13982;DHT22;7065;50.880;5.502;2022-12-29T09:56:19;10.40;99.90
13982;DHT22;7065;50.880;5.502;2022-12-29T09:58:50;10.40;99.90
13982;DHT22;7065;50.880;5.502;2022-12-29T10:03:52;10.40;99.90
13982;DHT22;7065;50.880;5.502;2022-12-29T10:20:28;10.40;99.90
13982;DHT22;7065;50.880;5.502;2022-12-29T10:23:28;10.40;99.90
13982;DHT22;7065;50.880;5.502;2022-12-29T10:25:56;10.40;99.90
13982;DHT22;7065;50.880;5.502;2022-12-29T10:28:40;10.50;99.90
13982;DHT22;7065;50.880;5.502;2022-12-29T10:31:16;10.50;99.90
13982;DHT22;7065;50.880;5.502;2022-12-29T10:33:46;10.60;99.90
13982;DHT22;7065;50.880;5.502;2022-12-29T10:36:27;10.60;99.90
13982;DHT22;7065;50.880;5.502;2022-12-29T10:39:23;10.60;99.90
13982;DHT22;7065;50.880;5.502;2022-12-29T10:44:37;10.70;99.90
13982;DHT22;7065;50.880;5.502;2022-12-29T10:47:26;10.70;99.90
13982;DHT22;7065;50.880;5.502;2022-12-29T10:49:51;10.60;99.90
13982;DHT22;7065;50.880;5.502;2022-12-29T10:52:19;10.60;99.90
13982;DHT22;7065;50.880;5.502;2022-12-29T10:55:17;10.60;99.90
13982;DHT22;7065;50.880;5.502;2022-12-29T10:57:45;10.60;99.90
13982;DHT22;7065;50.880;5.502;2022-12-29T11:00:21;10.70;99.90
13982;DHT22;7065;50.880;5.502;2022-12-29T11:08:49;10.70;99.90
13982;DHT22;7065;50.880;5.502;2022-12-29T11:11:24;10.70;99.90
13982;DHT22;7065;50.880;5.502;2022-12-29T11:14:02;10.70;99.90
13982;DHT22;7065;50.880;5.502;2022-12-29T11:16:31;10.90;99.90
13982;DHT22;7065;50.880;5.502;2022-12-29T11:18:58;11.10;99.90
13982;DHT22;7065;50.880;5.502;2022-12-29T11:24:26;11.10;99.90
13982;DHT22;7065;50.880;5.502;2022-12-29T11:26:54;11.10;99.90
13982;DHT22;7065;50.880;5.502;2022-12-29T11:29:37;11.10;99.90
13982;DHT22;7065;50.880;5.502;2022-12-29T11:32:30;11.10;99.90
13982;DHT22;7065;50.880;5.502;2022-12-29T11:34:57;11.10;99.90
13982;DHT22;7065;50.880;5.502;2022-12-29T11:37:55;11.10;99.90
13982;DHT22;7065;50.880;5.502;2022-12-29T11:40:21;11.10;99.90
13982;DHT22;7065;50.880;5.502;2022-12-29T11:45:19;11.10;99.90
13982;DHT22;7065;50.880;5.502;2022-12-29T11:47:47;11.10;99.90
13982;DHT22;7065;50.880;5.502;2022-12-29T11:50:23;11.10;99.90
13982;DHT22;7065;50.880;5.502;2022-12-29T11:52:57;11.10;99.90
13982;DHT22;7065;50.880;5.502;2022-12-29T11:55:26;11.00;99.90
13982;DHT22;7065;50.880;5.502;2022-12-29T11:57:54;11.00;99.90
13982;DHT22;7065;50.880;5.502;2022-12-29T12:00:23;11.00;99.90
13982;DHT22;7065;50.880;5.502;2022-12-29T12:05:43;11.00;99.90
13982;DHT22;7065;50.880;5.502;2022-12-29T12:10:55;10.90;99.90
13982;DHT22;7065;50.880;5.502;2022-12-29T12:13:30;10.90;99.90
13982;DHT22;7065;50.880;5.502;2022-12-29T12:16:04;10.90;99.90
13982;DHT22;7065;50.880;5.502;2022-12-29T12:18:52;10.90;99.90
13982;DHT22;7065;50.880;5.502;2022-12-29T12:21:27;10.90;99.90
13982;DHT22;7065;50.880;5.502;2022-12-29T12:24:11;10.90;99.90
13982;DHT22;7065;50.880;5.502;2022-12-29T12:26:55;10.90;99.90
13982;DHT22;7065;50.880;5.502;2022-12-29T12:29:35;10.90;99.90
13982;DHT22;7065;50.880;5.502;2022-12-29T12:34:45;10.90;99.90
13982;DHT22;7065;50.880;5.502;2022-12-29T12:53:40;10.90;99.90
13982;DHT22;7065;50.880;5.502;2022-12-29T13:01:24;10.80;99.90
13982;DHT22;7065;50.880;5.502;2022-12-29T13:11:55;10.70;99.90
13982;DHT22;7065;50.880;5.502;2022-12-29T13:20:10;10.70;99.90
13982;DHT22;7065;50.880;5.502;2022-12-29T13:22:46;10.70;99.90
13982;DHT22;7065;50.880;5.502;2022-12-29T13:30:53;10.70;99.90
13982;DHT22;7065;50.880;5.502;2022-12-29T13:36:40;10.60;99.90
13982;DHT22;7065;50.880;5.502;2022-12-29T13:39:10;10.60;99.90
13982;DHT22;7065;50.880;5.502;2022-12-29T13:41:45;10.50;99.90
13982;DHT22;7065;50.880;5.502;2022-12-29T13:44:22;10.60;99.90
13982;DHT22;7065;50.880;5.502;2022-12-29T13:46:49;10.60;99.90
13982;DHT22;7065;50.880;5.502;2022-12-29T13:49:20;10.50;99.90
13982;DHT22;7065;50.880;5.502;2022-12-29T13:52:03;10.50;99.90
13982;DHT22;7065;50.880;5.502;2022-12-29T13:54:42;10.50;99.90
13982;DHT22;7065;50.880;5.502;2022-12-29T13:57:20;10.50;99.90
13982;DHT22;7065;50.880;5.502;2022-12-29T14:00:02;10.40;99.90
13982;DHT22;7065;50.880;5.502;2022-12-29T14:05:02;10.50;99.90
13982;DHT22;7065;50.880;5.502;2022-12-29T14:07:29;10.50;99.90
13982;DHT22;7065;50.880;5.502;2022-12-29T14:10:02;10.50;99.90
13982;DHT22;7065;50.880;5.502;2022-12-29T14:12:39;10.50;99.90
13982;DHT22;7065;50.880;5.502;2022-12-29T14:17:35;10.50;99.90
13982;DHT22;7065;50.880;5.502;2022-12-29T14:20:01;10.50;99.90
13982;DHT22;7065;50.880;5.502;2022-12-29T14:22:28;10.50;99.90
13982;DHT22;7065;50.880;5.502;2022-12-29T14:24:54;10.50;99.90
13982;DHT22;7065;50.880;5.502;2022-12-29T14:29:50;10.50;99.90
13982;DHT22;7065;50.880;5.502;2022-12-29T14:37:25;10.50;99.90
13982;DHT22;7065;50.880;5.502;2022-12-29T14:42:48;10.50;99.90
13982;DHT22;7065;50.880;5.502;2022-12-29T14:47:46;10.50;99.90
13982;DHT22;7065;50.880;5.502;2022-12-29T14:50:42;10.50;99.90
13982;DHT22;7065;50.880;5.502;2022-12-29T14:56:09;10.40;99.90
13982;DHT22;7065;50.880;5.502;2022-12-29T15:01:37;10.30;99.90
13982;DHT22;7065;50.880;5.502;2022-12-29T15:04:17;10.20;99.90
13982;DHT22;7065;50.880;5.502;2022-12-29T15:06:43;10.10;99.90
13982;DHT22;7065;50.880;5.502;2022-12-29T15:11:52;10.00;99.90
13982;DHT22;7065;50.880;5.502;2022-12-29T15:14:29;9.90;99.90
13982;DHT22;7065;50.880;5.502;2022-12-29T15:16:56;9.90;99.90
13982;DHT22;7065;50.880;5.502;2022-12-29T15:19:23;9.90;99.90
13982;DHT22;7065;50.880;5.502;2022-12-29T15:21:49;9.90;99.90
13982;DHT22;7065;50.880;5.502;2022-12-29T15:24:16;9.90;99.90
13982;DHT22;7065;50.880;5.502;2022-12-29T15:26:47;9.80;99.90
13982;DHT22;7065;50.880;5.502;2022-12-29T15:34:42;9.60;99.90
13982;DHT22;7065;50.880;5.502;2022-12-29T15:37:09;9.50;99.90
13982;DHT22;7065;50.880;5.502;2022-12-29T15:39:35;9.40;99.90
13982;DHT22;7065;50.880;5.502;2022-12-29T15:44:46;9.50;99.90
13982;DHT22;7065;50.880;5.502;2022-12-29T15:49:42;9.30;99.90
13982;DHT22;7065;50.880;5.502;2022-12-29T15:52:09;9.20;99.90
13982;DHT22;7065;50.880;5.502;2022-12-29T15:54:36;9.10;99.90
13982;DHT22;7065;50.880;5.502;2022-12-29T15:57:03;9.00;99.90
13982;DHT22;7065;50.880;5.502;2022-12-29T15:59:33;8.90;99.90
13982;DHT22;7065;50.880;5.502;2022-12-29T16:02:00;8.90;99.90
13982;DHT22;7065;50.880;5.502;2022-12-29T16:04:30;8.80;99.90
13982;DHT22;7065;50.880;5.502;2022-12-29T16:06:57;8.70;99.90
13982;DHT22;7065;50.880;5.502;2022-12-29T16:09:34;8.70;99.90
13982;DHT22;7065;50.880;5.502;2022-12-29T16:12:06;8.70;99.90
13982;DHT22;7065;50.880;5.502;2022-12-29T16:14:41;8.60;99.90
13982;DHT22;7065;50.880;5.502;2022-12-29T16:17:12;8.60;99.90
13982;DHT22;7065;50.880;5.502;2022-12-29T16:19:41;8.70;99.90
13982;DHT22;7065;50.880;5.502;2022-12-29T16:22:30;8.80;99.90
13982;DHT22;7065;50.880;5.502;2022-12-29T16:25:18;8.90;99.90
13982;DHT22;7065;50.880;5.502;2022-12-29T16:27:44;9.00;99.90
13982;DHT22;7065;50.880;5.502;2022-12-29T16:30:20;8.90;99.90
13982;DHT22;7065;50.880;5.502;2022-12-29T16:32:54;8.80;99.90
13982;DHT22;7065;50.880;5.502;2022-12-29T16:35:27;8.70;99.90
13982;DHT22;7065;50.880;5.502;2022-12-29T16:38:18;8.70;99.90
13982;DHT22;7065;50.880;5.502;2022-12-29T16:40:56;8.60;99.90
13982;DHT22;7065;50.880;5.502;2022-12-29T16:43:33;8.50;99.90
13982;DHT22;7065;50.880;5.502;2022-12-29T16:48:50;8.30;99.90
13982;DHT22;7065;50.880;5.502;2022-12-29T16:51:32;8.30;99.90
13982;DHT22;7065;50.880;5.502;2022-12-29T16:54:00;8.30;99.90
13982;DHT22;7065;50.880;5.502;2022-12-29T16:56:33;8.20;99.90
13982;DHT22;7065;50.880;5.502;2022-12-29T17:01:29;8.10;99.90
13982;DHT22;7065;50.880;5.502;2022-12-29T17:03:59;8.00;99.90
13982;DHT22;7065;50.880;5.502;2022-12-29T17:06:26;8.00;99.90
13982;DHT22;7065;50.880;5.502;2022-12-29T17:08:52;7.90;99.90
13982;DHT22;7065;50.880;5.502;2022-12-29T17:11:54;7.90;99.90
13982;DHT22;7065;50.880;5.502;2022-12-29T17:17:14;7.80;99.90
13982;DHT22;7065;50.880;5.502;2022-12-29T17:19:51;7.70;99.90
13982;DHT22;7065;50.880;5.502;2022-12-29T17:22:23;7.70;99.90
13982;DHT22;7065;50.880;5.502;2022-12-29T17:24:53;7.70;99.90
13982;DHT22;7065;50.880;5.502;2022-12-29T17:27:47;7.70;99.90
13982;DHT22;7065;50.880;5.502;2022-12-29T17:30:16;7.70;99.90
13982;DHT22;7065;50.880;5.502;2022-12-29T17:32:57;7.70;99.90
13982;DHT22;7065;50.880;5.502;2022-12-29T17:35:24;7.60;99.90
13982;DHT22;7065;50.880;5.502;2022-12-29T17:37:50;7.70;99.90
13982;DHT22;7065;50.880;5.502;2022-12-29T17:40:18;7.70;99.90
13982;DHT22;7065;50.880;5.502;2022-12-29T17:42:46;7.80;99.90
13982;DHT22;7065;50.880;5.502;2022-12-29T17:45:20;7.80;99.90
13982;DHT22;7065;50.880;5.502;2022-12-29T17:47:47;7.90;99.90
13982;DHT22;7065;50.880;5.502;2022-12-29T17:50:24;7.90;99.90
13982;DHT22;7065;50.880;5.502;2022-12-29T17:52:58;7.90;99.90
13982;DHT22;7065;50.880;5.502;2022-12-29T17:55:25;7.90;99.90
13982;DHT22;7065;50.880;5.502;2022-12-29T17:57:51;7.90;99.90
13982;DHT22;7065;50.880;5.502;2022-12-29T18:00:30;7.80;99.90
13982;DHT22;7065;50.880;5.502;2022-12-29T18:02:56;7.80;99.90
13982;DHT22;7065;50.880;5.502;2022-12-29T18:05:28;7.70;99.90
13982;DHT22;7065;50.880;5.502;2022-12-29T18:07:56;7.60;99.90
13982;DHT22;7065;50.880;5.502;2022-12-29T18:10:24;7.50;99.90
13982;DHT22;7065;50.880;5.502;2022-12-29T18:12:52;7.40;99.90
13982;DHT22;7065;50.880;5.502;2022-12-29T18:17:46;7.30;99.90
13982;DHT22;7065;50.880;5.502;2022-12-29T18:20:12;7.20;99.90
13982;DHT22;7065;50.880;5.502;2022-12-29T18:22:37;7.20;99.90
13982;DHT22;7065;50.880;5.502;2022-12-29T18:25:20;7.20;99.90
13982;DHT22;7065;50.880;5.502;2022-12-29T18:27:47;7.10;99.90
13982;DHT22;7065;50.880;5.502;2022-12-29T18:30:12;7.10;99.90
13982;DHT22;7065;50.880;5.502;2022-12-29T18:32:38;7.10;99.90
13982;DHT22;7065;50.880;5.502;2022-12-29T18:35:18;7.10;99.90
13982;DHT22;7065;50.880;5.502;2022-12-29T18:37:48;7.00;99.90
13982;DHT22;7065;50.880;5.502;2022-12-29T18:40:13;7.10;99.90
13982;DHT22;7065;50.880;5.502;2022-12-29T18:42:39;7.10;99.90
13982;DHT22;7065;50.880;5.502;2022-12-29T18:45:14;7.00;99.90
13982;DHT22;7065;50.880;5.502;2022-12-29T18:47:41;7.00;99.90
13982;DHT22;7065;50.880;5.502;2022-12-29T18:50:07;7.00;99.90
13982;DHT22;7065;50.880;5.502;2022-12-29T18:52:32;7.10;99.90
13982;DHT22;7065;50.880;5.502;2022-12-29T18:54:58;7.10;99.90
13982;DHT22;7065;50.880;5.502;2022-12-29T18:57:23;7.10;99.90
13982;DHT22;7065;50.880;5.502;2022-12-29T18:59:49;7.10;99.90
13982;DHT22;7065;50.880;5.502;2022-12-29T19:02:16;7.10;99.90
13982;DHT22;7065;50.880;5.502;2022-12-29T19:04:44;7.00;99.90